Time;durP1;ratioP1;P1;durP2;ratioP2;P2;SDS_P1;SDS_P2;PMS_P1;PMS_P2;Temp;Humidity;BMP_temperature;BMP_pressure;BME280_temperature;BME280_humidity;BME280_pressure;Samples;Min_cycle;Max_cycle;Signal;HPM_P1;HPM_P2
2021/01/06 00:02:08;;;;;;;4.75;2.17;;;230.90;1689.60;;;;;;5115252;28;20015;-63
2021/01/06 00:04:34;;;;;;;4.22;2.08;;;231.00;1689.60;;;;;;5112666;28;20023;-63
2021/01/06 00:07:00;;;;;;;13.88;7.80;;;231.00;1689.60;;;;;;5115204;28;20035;-65
2021/01/06 00:09:25;;;;;;;10.95;5.50;;;231.00;1689.60;;;;;;5115153;28;20153;-62
2021/01/06 00:11:51;;;;;;;12.23;6.05;;;230.90;1689.60;;;;;;5115952;27;20417;-60
2021/01/06 00:14:17;;;;;;;14.93;7.30;;;230.90;1664.00;;;;;;5115843;28;20027;-61
2021/01/06 00:16:49;;;;;;;17.90;6.72;;;231.00;1664.00;;;;;;5116066;28;20336;-62
2021/01/06 00:19:15;;;;;;;10.07;5.15;;;231.00;1664.00;;;;;;5115311;28;20428;-60
2021/01/06 00:21:41;;;;;;;8.13;4.22;;;231.00;1638.40;;;;;;5115430;28;20025;-61
2021/01/06 00:24:07;;;;;;;20.17;8.52;;;231.00;1638.40;;;;;;5116282;28;20043;-62
2021/01/06 00:26:34;;;;;;;16.13;5.43;;;231.00;1638.40;;;;;;5116161;28;20034;-61
2021/01/06 00:29:00;;;;;;;10.02;4.78;;;231.00;1638.40;;;;;;5116043;28;20428;-61
2021/01/06 00:31:27;;;;;;;11.90;5.10;;;231.00;1638.40;;;;;;5116017;28;20041;-60
2021/01/06 00:33:52;;;;;;;7.75;4.10;;;230.90;1664.00;;;;;;5115689;28;20302;-62
2021/01/06 00:36:21;;;;;;;8.00;3.90;;;230.80;1664.00;;;;;;5116124;28;20038;-62
2021/01/06 00:38:49;;;;;;;9.38;4.60;;;230.70;1689.60;;;;;;5116186;28;20051;-62
2021/01/06 00:41:24;;;;;;;5.43;3.25;;;230.60;1689.60;;;;;;5116087;28;20096;-61
2021/01/06 00:43:52;;;;;;;8.10;3.55;;;230.60;1689.60;;;;;;5115383;28;20020;-60
2021/01/06 00:46:18;;;;;;;4.50;2.85;;;230.40;1715.20;;;;;;5115373;28;20048;-62
2021/01/06 00:48:44;;;;;;;6.68;3.03;;;230.40;1740.80;;;;;;5115832;28;20055;-62
2021/01/06 00:51:10;;;;;;;5.95;3.00;;;230.40;1740.80;;;;;;5115257;28;20459;-63
2021/01/06 00:53:36;;;;;;;7.25;3.40;;;230.40;1740.80;;;;;;5115784;28;20051;-62
2021/01/06 00:56:01;;;;;;;9.50;3.47;;;230.50;1740.80;;;;;;5114882;28;20026;-60
2021/01/06 00:58:27;;;;;;;6.63;2.95;;;230.50;1715.20;;;;;;5115291;28;20490;-61
2021/01/06 01:00:53;;;;;;;8.00;3.05;;;230.60;1740.80;;;;;;5115545;28;20027;-63
2021/01/06 01:03:19;;;;;;;7.50;3.40;;;230.60;1715.20;;;;;;5115737;28;20027;-61
2021/01/06 01:05:45;;;;;;;4.90;2.30;;;230.70;1715.20;;;;;;5115911;28;20142;-60
2021/01/06 01:08:12;;;;;;;5.20;2.03;;;230.70;1689.60;;;;;;5114180;28;20035;-61
2021/01/06 01:10:46;;;;;;;5.95;2.15;;;230.70;1715.20;;;;;;5115550;28;20401;-61
2021/01/06 01:13:20;;;;;;;9.82;3.65;;;230.70;1689.60;;;;;;5115805;28;20024;-62
2021/01/06 01:15:49;;;;;;;6.53;2.55;;;230.70;1715.20;;;;;;5115320;28;20023;-61
2021/01/06 01:18:18;;;;;;;5.95;2.85;;;230.70;1715.20;;;;;;5115489;28;20031;-60
2021/01/06 01:20:50;;;;;;;3.83;2.00;;;230.70;1715.20;;;;;;5115606;28;20053;-61
2021/01/06 01:23:18;;;;;;;4.60;2.60;;;230.50;1740.80;;;;;;5115164;28;20047;-62
2021/01/06 01:25:45;;;;;;;4.63;2.40;;;230.50;1740.80;;;;;;5114812;28;20059;-61
2021/01/06 01:28:12;;;;;;;4.25;2.40;;;230.40;1740.80;;;;;;5114976;28;20084;-62
2021/01/06 01:30:38;;;;;;;5.07;2.17;;;205.70;1766.40;;;;;;5114649;28;20076;-61
2021/01/06 01:33:04;;;;;;;6.13;3.03;;;205.70;1740.80;;;;;;5113846;28;20031;-62
2021/01/06 01:35:32;;;;;;;3.70;1.95;;;205.70;1740.80;;;;;;5114309;28;20019;-61
2021/01/06 01:38:01;;;;;;;5.40;2.05;;;205.60;1766.40;;;;;;5111514;28;20031;-62
2021/01/06 01:40:29;;;;;;;4.57;2.42;;;205.60;1740.80;;;;;;5114547;28;20417;-63
2021/01/06 01:43:05;;;;;;;6.93;2.40;;;205.70;1740.80;;;;;;5114521;28;20031;-62
2021/01/06 01:45:50;;;;;;;4.50;2.03;;;205.70;1740.80;;;;;;5111566;28;20067;-61
2021/01/06 01:48:40;;;;;;;7.57;1.65;;;205.70;1740.80;;;;;;5081733;28;20436;-62
2021/01/06 01:51:27;;;;;;;4.07;1.70;;;205.70;1740.80;;;;;;5113048;28;20031;-61
2021/01/06 01:54:13;;;;;;;3.97;1.98;;;230.40;1715.20;;;;;;5114092;28;20098;-62
2021/01/06 01:57:00;;;;;;;4.80;2.30;;;230.40;1740.80;;;;;;5111813;28;20340;-60
2021/01/06 01:59:40;;;;;;;5.32;2.33;;;205.70;1715.20;;;;;;5112857;28;20027;-60
2021/01/06 02:02:35;;;;;;;2.85;1.50;;;205.70;1740.80;;;;;;5112900;28;20058;-61
2021/01/06 02:05:21;;;;;;;5.15;2.33;;;205.70;1740.80;;;;;;5111957;28;20114;-61
2021/01/06 02:07:58;;;;;;;7.63;2.50;;;205.70;1740.80;;;;;;5112851;28;20153;-63
2021/01/06 02:10:36;;;;;;;5.10;2.20;;;205.70;1740.80;;;;;;5112542;28;20542;-63
2021/01/06 02:13:08;;;;;;;4.40;1.95;;;230.40;1715.20;;;;;;5109677;28;20389;-62
2021/01/06 02:16:00;;;;;;;4.03;1.73;;;230.40;1715.20;;;;;;5114497;28;20078;-61
2021/01/06 02:18:27;;;;;;;9.95;4.05;;;230.60;1689.60;;;;;;5118435;28;20023;-63
2021/01/06 02:21:10;;;;;;;3.53;1.80;;;230.60;1689.60;;;;;;5121209;28;20114;-60
2021/01/06 02:23:37;;;;;;;7.13;2.72;;;230.70;1689.60;;;;;;5121232;28;20028;-61
2021/01/06 02:26:04;;;;;;;18.98;7.90;;;230.70;1689.60;;;;;;5120842;27;20035;-61
2021/01/06 02:28:30;;;;;;;11.35;4.50;;;230.70;1689.60;;;;;;5121025;27;20050;-61
2021/01/06 02:30:56;;;;;;;9.23;3.20;;;230.70;1664.00;;;;;;5120735;28;20035;-61
2021/01/06 02:33:23;;;;;;;6.90;3.20;;;230.80;1664.00;;;;;;5120124;28;20019;-62
2021/01/06 02:35:51;;;;;;;4.50;2.35;;;230.80;1664.00;;;;;;5120713;27;20027;-63
2021/01/06 02:38:18;;;;;;;5.77;2.77;;;230.80;1664.00;;;;;;5120638;28;20019;-62
2021/01/06 02:40:45;;;;;;;5.95;3.22;;;230.80;1689.60;;;;;;5120463;28;20020;-60
2021/01/06 02:43:11;;;;;;;7.60;4.38;;;230.80;1689.60;;;;;;5120835;28;20027;-62
2021/01/06 02:45:37;;;;;;;6.68;3.10;;;230.90;1689.60;;;;;;5120384;28;20023;-61
2021/01/06 02:48:03;;;;;;;6.80;3.30;;;230.80;1664.00;;;;;;5119857;28;20072;-62
2021/01/06 02:50:31;;;;;;;8.55;3.45;;;230.90;1664.00;;;;;;5120685;28;20055;-61
2021/01/06 02:53:04;;;;;;;5.88;2.53;;;231.00;1664.00;;;;;;5119738;28;20393;-62
2021/01/06 02:55:33;;;;;;;4.93;2.60;;;231.00;1664.00;;;;;;5120566;28;20059;-62
2021/01/06 02:58:04;;;;;;;8.52;3.13;;;231.00;1664.00;;;;;;5119960;28;20027;-60
2021/01/06 03:00:31;;;;;;;6.68;2.88;;;231.00;1664.00;;;;;;5119851;28;20062;-62
2021/01/06 03:02:58;;;;;;;11.30;4.50;;;230.90;1689.60;;;;;;5120382;28;20032;-60
2021/01/06 03:05:48;;;;;;;15.70;5.35;;;231.00;1689.60;;;;;;5120399;28;20047;-63
2021/01/06 03:08:17;;;;;;;18.33;6.88;;;230.80;1689.60;;;;;;5119711;28;20312;-62
2021/01/06 03:10:44;;;;;;;6.80;2.75;;;230.70;1689.60;;;;;;5120055;28;20073;-60
2021/01/06 03:13:10;;;;;;;8.57;2.58;;;230.70;1664.00;;;;;;5120194;28;20023;-61
2021/01/06 03:15:37;;;;;;;6.20;1.60;;;230.80;1689.60;;;;;;5119896;28;20030;-61
2021/01/06 03:18:03;;;;;;;2.88;1.70;;;230.70;1689.60;;;;;;5119886;27;20340;-61
2021/01/06 03:20:38;;;;;;;3.30;1.67;;;230.70;1715.20;;;;;;5119840;28;20024;-64
2021/01/06 03:23:38;;;;;;;2.75;1.60;;;230.70;1689.60;;;;;;5119480;28;20024;-61
2021/01/06 03:26:09;;;;;;;3.53;1.63;;;230.70;1715.20;;;;;;5036873;28;20060;-64
2021/01/06 03:28:36;;;;;;;3.50;1.55;;;230.70;1715.20;;;;;;5036770;28;20033;-60
2021/01/06 03:31:06;;;;;;;3.05;1.60;;;230.60;1715.20;;;;;;5035724;28;20041;-60
2021/01/06 03:33:40;;;;;;;3.55;1.67;;;230.70;1740.80;;;;;;5036746;28;20131;-62
2021/01/06 03:36:18;;;;;;;6.30;1.88;;;230.60;1740.80;;;;;;5036346;28;20045;-61
2021/01/06 03:39:05;;;;;;;5.00;1.50;;;230.50;1766.40;;;;;;5036922;28;20029;-61
2021/01/06 03:41:32;;;;;;;2.42;1.48;;;230.50;1740.80;;;;;;5036582;28;20343;-62
2021/01/06 03:44:06;;;;;;;3.25;1.45;;;230.60;1715.20;;;;;;5036125;28;20120;-61
2021/01/06 03:46:40;;;;;;;3.60;1.58;;;230.60;1740.80;;;;;;5035912;28;20455;-63
2021/01/06 03:49:31;;;;;;;2.35;1.40;;;230.60;1740.80;;;;;;5036129;28;20049;-62
2021/01/06 03:52:03;;;;;;;4.97;2.45;;;230.60;1715.20;;;;;;5036348;28;20415;-62
2021/01/06 03:54:33;;;;;;;5.05;1.73;;;230.60;1715.20;;;;;;5036046;28;20339;-62
2021/01/06 03:57:02;;;;;;;3.25;1.60;;;230.70;1715.20;;;;;;5018949;28;20076;-61
2021/01/06 03:59:31;;;;;;;4.35;2.38;;;230.70;1689.60;;;;;;5036035;28;20037;-62
2021/01/06 04:02:03;;;;;;;2.47;1.17;;;230.70;1715.20;;;;;;5064094;28;20028;-63
2021/01/06 04:04:30;;;;;;;3.38;1.45;;;230.70;1715.20;;;;;;5118374;27;20076;-61
2021/01/06 04:06:59;;;;;;;3.35;1.63;;;230.60;1715.20;;;;;;5119191;28;20031;-63
2021/01/06 04:09:39;;;;;;;2.83;1.58;;;230.60;1740.80;;;;;;5118704;28;20028;-63
2021/01/06 04:12:14;;;;;;;3.60;2.00;;;230.60;1740.80;;;;;;5118857;28;20080;-61
2021/01/06 04:14:41;;;;;;;3.38;1.38;;;230.70;1740.80;;;;;;5118975;28;20023;-61
2021/01/06 04:17:17;;;;;;;4.90;1.50;;;230.60;1766.40;;;;;;5117595;28;20344;-61
2021/01/06 04:19:48;;;;;;;7.03;1.90;;;230.60;1766.40;;;;;;5118442;28;20034;-63
2021/01/06 04:22:15;;;;;;;2.75;1.67;;;230.60;1766.40;;;;;;5118613;28;20024;-60
2021/01/06 04:24:41;;;;;;;2.22;1.35;;;230.50;1766.40;;;;;;5118075;28;20059;-62
2021/01/06 04:27:12;;;;;;;4.20;1.40;;;230.50;1766.40;;;;;;5118545;28;20027;-60
2021/01/06 04:29:40;;;;;;;2.38;1.38;;;230.60;1766.40;;;;;;5118665;28;20042;-61
2021/01/06 04:32:06;;;;;;;3.40;1.88;;;230.60;1766.40;;;;;;5118169;28;20030;-63
2021/01/06 04:34:32;;;;;;;2.38;1.15;;;230.60;1740.80;;;;;;5118354;28;20123;-61
2021/01/06 04:36:58;;;;;;;3.38;1.45;;;230.70;1766.40;;;;;;5117195;28;20024;-61
2021/01/06 04:39:24;;;;;;;2.83;1.70;;;230.70;1766.40;;;;;;5118212;28;20023;-62
2021/01/06 04:42:04;;;;;;;2.67;1.40;;;230.70;1766.40;;;;;;5117229;28;20432;-63
2021/01/06 04:44:58;;;;;;;3.08;1.73;;;230.70;1766.40;;;;;;5118278;28;20035;-62
2021/01/06 04:47:56;;;;;;;4.40;1.60;;;230.70;1740.80;;;;;;5117984;28;20055;-62
2021/01/06 04:50:51;;;;;;;16.75;9.93;;;230.70;1740.80;;;;;;5117458;28;20405;-62
2021/01/06 04:53:40;;;;;;;8.50;4.15;;;230.70;1766.40;;;;;;5117087;28;20023;-61
2021/01/06 04:56:20;;;;;;;;;;;230.70;1740.80;;;;;;5117305;28;20324;-60
2021/01/06 04:59:10;;;;;;;3.45;2.38;;;230.80;1740.80;;;;;;5117588;28;19914;-61
2021/01/06 05:01:43;;;;;;;3.53;1.75;;;230.80;1740.80;;;;;;5115789;28;20032;-62
2021/01/06 05:04:32;;;;;;;3.17;2.22;;;230.80;1740.80;;;;;;5117494;28;20055;-62
2021/01/06 05:07:05;;;;;;;4.70;1.98;;;230.70;1740.80;;;;;;5117935;28;20106;-62
2021/01/06 05:09:43;;;;;;;11.65;1.98;;;230.70;1740.80;;;;;;5117759;28;20134;-61
2021/01/06 05:12:12;;;;;;;3.83;2.00;;;230.80;1740.80;;;;;;5117801;28;20076;-62
2021/01/06 05:14:47;;;;;;;3.13;1.92;;;230.80;1740.80;;;;;;5117213;28;20413;-60
2021/01/06 05:17:13;;;;;;;3.05;1.80;;;230.80;1740.80;;;;;;5117829;28;20031;-60
2021/01/06 05:19:50;;;;;;;4.25;1.55;;;230.80;1740.80;;;;;;5118049;28;20028;-62
2021/01/06 05:22:16;;;;;;;3.13;1.50;;;230.90;1740.80;;;;;;5117791;28;20031;-62
2021/01/06 05:24:44;;;;;;;3.33;1.80;;;230.80;1740.80;;;;;;5118052;28;20020;-62
2021/01/06 05:27:12;;;;;;;3.15;1.90;;;230.80;1740.80;;;;;;5117419;28;20325;-62
2021/01/06 05:29:42;;;;;;;4.55;1.95;;;230.80;1740.80;;;;;;5117447;28;20034;-62
2021/01/06 05:32:28;;;;;;;3.33;1.70;;;230.80;1740.80;;;;;;5117942;28;20024;-61
2021/01/06 05:35:09;;;;;;;3.30;1.63;;;230.90;1740.80;;;;;;5116864;28;20098;-62
2021/01/06 05:37:35;;;;;;;7.93;4.65;;;230.90;1740.80;;;;;;5117618;28;20027;-62
2021/01/06 05:40:08;;;;;;;15.82;9.73;;;230.90;1715.20;;;;;;5117483;28;20033;-61
2021/01/06 05:42:51;;;;;;;5.70;4.07;;;230.90;1715.20;;;;;;5117252;28;20474;-63
2021/01/06 05:45:25;;;;;;;5.97;2.72;;;231.00;1740.80;;;;;;5117579;28;20027;-61
2021/01/06 05:48:03;;;;;;;4.00;2.30;;;231.00;1715.20;;;;;;5117483;28;20124;-61
2021/01/06 05:50:38;;;;;;;4.43;1.92;;;230.90;1740.80;;;;;;5117106;28;20329;-60
2021/01/06 05:53:06;;;;;;;4.63;2.00;;;230.90;1715.20;;;;;;5118127;28;20023;-63
2021/01/06 05:55:35;;;;;;;2.95;1.67;;;231.00;1740.80;;;;;;5120261;28;20156;-61
2021/01/06 05:58:26;;;;;;;3.05;1.80;;;231.00;1740.80;;;;;;5121113;28;20066;-61
2021/01/06 06:01:17;;;;;;;4.68;1.95;;;230.90;1740.80;;;;;;5120632;28;20030;-62
2021/01/06 06:04:16;;;;;;;5.95;1.73;;;230.90;1740.80;;;;;;5119932;28;20055;-63
2021/01/06 06:06:58;;;;;;;4.43;2.25;;;230.90;1715.20;;;;;;5120758;27;20080;-61
2021/01/06 06:09:38;;;;;;;3.95;2.63;;;230.90;1740.80;;;;;;5120782;28;20031;-61
2021/01/06 06:12:19;;;;;;;3.80;2.20;;;231.00;1715.20;;;;;;5120356;28;20325;-61
2021/01/06 06:14:59;;;;;;;6.57;3.00;;;231.00;1715.20;;;;;;5120879;28;20034;-62
2021/01/06 06:17:28;;;;;;;29.30;12.50;;;231.00;1715.20;;;;;;5121156;28;20049;-61
2021/01/06 06:19:53;;;;;;;103.65;44.80;;;231.00;1715.20;;;;;;5121059;28;20063;-61
2021/01/06 06:22:25;;;;;;;312.10;135.80;;;231.00;1715.20;;;;;;5121258;28;20031;-62
2021/01/06 06:25:20;;;;;;;77.22;48.78;;;231.00;1715.20;;;;;;5120953;28;20023;-60
2021/01/06 06:28:12;;;;;;;12.70;11.40;;;231.10;1715.20;;;;;;5111953;28;20125;-62
2021/01/06 06:31:10;;;;;;;15.80;14.20;;;231.10;1715.20;;;;;;5120555;28;20030;-61
2021/01/06 06:33:36;;;;;;;5.30;4.40;;;231.10;1715.20;;;;;;5120248;28;20020;-62
2021/01/06 06:36:18;;;;;;;4.22;3.00;;;231.20;1689.60;;;;;;5120952;28;20037;-59
2021/01/06 06:38:47;;;;;;;16.17;10.52;;;231.20;1689.60;;;;;;5120177;28;20421;-62
2021/01/06 06:41:22;;;;;;;8.85;3.38;;;231.30;1715.20;;;;;;5120927;28;20020;-61
2021/01/06 06:43:53;;;;;;;5.68;4.45;;;231.30;1689.60;;;;;;5120842;27;20032;-60
2021/01/06 06:46:40;;;;;;;7.00;4.72;;;231.30;1689.60;;;;;;5120285;28;20050;-61
2021/01/06 06:49:24;;;;;;;8.50;6.35;;;256.00;1689.60;;;;;;5120382;28;20036;-61
2021/01/06 06:51:52;;;;;;;5.68;2.30;;;256.10;1689.60;;;;;;5120169;28;20027;-61
2021/01/06 06:54:44;;;;;;;6.03;2.40;;;256.20;1664.00;;;;;;5120414;28;20316;-61
2021/01/06 06:57:29;;;;;;;9.68;6.15;;;256.30;1664.00;;;;;;5088906;28;20027;-61
2021/01/06 07:00:14;;;;;;;6.30;4.30;;;256.30;1664.00;;;;;;5120252;28;20033;-61
2021/01/06 07:02:58;;;;;;;13.55;3.45;;;256.30;1664.00;;;;;;5120445;28;20400;-60
2021/01/06 07:05:42;;;;;;;4.75;2.80;;;256.30;1664.00;;;;;;5119159;28;20024;-61
2021/01/06 07:08:33;;;;;;;9.23;5.93;;;256.30;1664.00;;;;;;5120279;28;20131;-61
2021/01/06 07:11:19;;;;;;;14.38;10.77;;;256.50;1740.80;;;;;;5110897;28;20040;-61
2021/01/06 07:13:53;;;;;;;23.45;16.08;;;256.60;1664.00;;;;;;5119975;28;20115;-61
2021/01/06 07:16:26;;;;;;;23.13;8.43;;;256.70;1689.60;;;;;;5120202;28;20030;-61
2021/01/06 07:19:03;;;;;;;18.20;10.18;;;256.90;1715.20;;;;;;5120215;28;20114;-62
2021/01/06 07:21:33;;;;;;;7.97;4.55;;;256.90;1638.40;;;;;;5119869;28;20034;-62
2021/01/06 07:24:02;;;;;;;11.20;6.22;;;281.60;1664.00;;;;;;5119725;28;20024;-62
2021/01/06 07:26:37;;;;;;;13.02;5.72;;;281.60;1664.00;;;;;;5119321;28;20024;-60
2021/01/06 07:29:07;;;;;;;6.22;3.25;;;281.60;1689.60;;;;;;5119918;28;20059;-60
2021/01/06 07:31:52;;;;;;;13.80;6.55;;;281.70;1664.00;;;;;;5119863;28;20433;-61
2021/01/06 07:34:29;;;;;;;19.88;8.48;;;281.80;1664.00;;;;;;5118792;28;20349;-62
2021/01/06 07:36:58;;;;;;;10.02;5.15;;;281.90;1638.40;;;;;;5118975;28;20405;-62
2021/01/06 07:39:26;;;;;;;;;;;282.00;1638.40;;;;;;5119905;28;20085;-61
2021/01/06 07:41:52;;;;;;;8.30;5.18;;;282.00;1612.80;;;;;;5119102;28;20289;-62
2021/01/06 07:44:26;;;;;;;7.00;3.40;;;282.00;1612.80;;;;;;5118962;28;20031;-61
2021/01/06 07:47:17;;;;;;;3.88;2.13;;;282.10;1612.80;;;;;;5119545;28;20055;-62
2021/01/06 07:49:45;;;;;;;4.68;2.75;;;282.30;1587.20;;;;;;5119569;28;20390;-61
2021/01/06 07:52:17;;;;;;;5.15;2.45;;;282.40;1612.80;;;;;;5117912;28;20024;-62
2021/01/06 07:54:52;;;;;;;5.15;2.92;;;282.40;1587.20;;;;;;5119223;28;20019;-63
2021/01/06 07:57:35;;;;;;;6.00;3.42;;;282.30;1587.20;;;;;;5118190;28;20405;-62
2021/01/06 08:00:08;;;;;;;13.77;6.90;;;282.20;1612.80;;;;;;5118499;28;20027;-63
2021/01/06 08:02:41;;;;;;;4.93;2.42;;;282.10;1612.80;;;;;;5118542;28;20051;-61
2021/01/06 08:05:30;;;;;;;7.78;3.42;;;282.10;1587.20;;;;;;5119150;28;20429;-62
2021/01/06 08:08:07;;;;;;;5.57;2.50;;;282.20;1612.80;;;;;;5119196;28;20428;-61
2021/01/06 08:10:35;;;;;;;4.90;2.55;;;282.20;1587.20;;;;;;5118891;28;20028;-62
2021/01/06 08:13:35;;;;;;;3.97;2.45;;;282.20;1612.80;;;;;;5118452;28;20020;-62
2021/01/06 08:16:06;;;;;;;5.30;3.00;;;282.20;1612.80;;;;;;5034112;28;20084;-63
2021/01/06 08:18:50;;;;;;;4.95;3.20;;;282.20;1587.20;;;;;;5033170;28;20039;-63
2021/01/06 08:21:30;;;;;;;4.43;2.80;;;282.20;1612.80;;;;;;5035377;28;20466;-60
2021/01/06 08:24:44;;;;;;;4.80;2.60;;;282.20;1612.80;;;;;;5035271;28;20331;-61
2021/01/06 08:27:25;;;;;;;4.30;3.05;;;282.20;1587.20;;;;;;5035472;28;20090;-62
2021/01/06 08:30:10;;;;;;;13.27;6.57;;;282.30;1587.20;;;;;;5035541;28;20049;-61
2021/01/06 08:32:36;;;;;;;11.90;7.05;;;282.50;1612.80;;;;;;5035876;28;20127;-62
2021/01/06 08:35:07;;;;;;;6.55;2.75;;;307.30;1612.80;;;;;;5035664;28;20163;-62
2021/01/06 08:37:39;;;;;;;4.72;2.20;;;307.40;1612.80;;;;;;5035032;28;20022;-61
2021/01/06 08:40:30;;;;;;;10.18;4.47;;;307.50;1561.60;;;;;;5035073;28;20033;-64
2021/01/06 08:42:58;;;;;;;4.93;2.70;;;307.50;1587.20;;;;;;5035594;28;20094;-62
2021/01/06 08:45:33;;;;;;;3.83;1.80;;;307.50;1612.80;;;;;;5034913;28;20041;-66
2021/01/06 08:48:30;;;;;;;4.15;1.90;;;307.50;1561.60;;;;;;5035534;28;20041;-61
2021/01/06 08:51:13;;;;;;;5.10;3.03;;;307.40;1536.00;;;;;;5035243;28;20391;-62
2021/01/06 08:53:42;;;;;;;4.75;2.90;;;307.40;1587.20;;;;;;5090013;28;20032;-62
2021/01/06 08:56:24;;;;;;;6.13;3.33;;;307.50;1561.60;;;;;;5095412;28;20449;-63
2021/01/06 08:58:53;;;;;;;6.22;2.70;;;307.70;1561.60;;;;;;5095344;28;20073;-61
2021/01/06 09:01:49;;;;;;;5.82;2.67;;;307.80;1561.60;;;;;;5109527;28;20035;-63
2021/01/06 09:04:20;;;;;;;7.85;5.75;;;307.90;1536.00;;;;;;5090423;28;20128;-63
2021/01/06 09:07:07;;;;;;;4.15;2.55;;;308.00;1536.00;;;;;;5095918;28;20111;-62
2021/01/06 09:09:33;;;;;;;2.90;1.70;;;308.10;1510.40;;;;;;5096447;28;20032;-62
2021/01/06 09:11:59;;;;;;;3.38;1.63;;;308.00;1536.00;;;;;;5096474;28;20032;-62
2021/01/06 09:14:39;;;;;;;6.72;4.18;;;307.90;1561.60;;;;;;5095633;28;20077;-61
2021/01/06 09:17:11;;;;;;;5.20;2.22;;;307.80;1536.00;;;;;;5096731;28;20107;-62
2021/01/06 09:20:03;;;;;;;9.50;4.28;;;307.80;1536.00;;;;;;5096233;28;20028;-62
2021/01/06 09:22:29;;;;;;;4.38;2.22;;;307.80;1536.00;;;;;;5096953;28;20024;-60
2021/01/06 09:24:55;;;;;;;6.38;3.72;;;307.70;1561.60;;;;;;5096474;28;20077;-61
2021/01/06 09:27:42;;;;;;;3.83;2.83;;;307.90;1561.60;;;;;;5096867;28;20020;-61
2021/01/06 09:30:18;;;;;;;4.60;2.90;;;308.00;1510.40;;;;;;5105753;28;20051;-61
2021/01/06 09:32:46;;;;;;;4.88;3.17;;;332.90;1561.60;;;;;;5121193;28;20057;-63
2021/01/06 09:35:19;;;;;;;9.55;5.50;;;333.10;1536.00;;;;;;5120390;28;20026;-63
2021/01/06 09:37:54;;;;;;;6.47;3.55;;;333.10;1536.00;;;;;;5121376;28;20024;-62
2021/01/06 09:40:21;;;;;;;4.47;2.42;;;333.10;1536.00;;;;;;5121582;28;20027;-63
2021/01/06 09:42:57;;;;;;;20.58;9.73;;;332.90;1536.00;;;;;;5121789;28;20023;-62
2021/01/06 09:45:26;;;;;;;13.30;6.53;;;333.00;1536.00;;;;;;5116490;28;20032;-62
2021/01/06 09:48:05;;;;;;;12.68;7.22;;;333.10;1536.00;;;;;;5100776;28;20110;-62
2021/01/06 09:50:43;;;;;;;19.20;9.07;;;333.20;1536.00;;;;;;5100743;28;20047;-62
2021/01/06 09:53:14;;;;;;;9.68;4.53;;;333.40;1510.40;;;;;;5100674;28;20023;-62
2021/01/06 09:55:44;;;;;;;7.55;3.65;;;333.40;1536.00;;;;;;5100625;28;20023;-63
2021/01/06 09:58:28;;;;;;;4.70;2.00;;;333.40;1510.40;;;;;;5101051;28;20379;-62
2021/01/06 10:01:12;;;;;;;15.68;8.07;;;333.50;1510.40;;;;;;5100900;28;20069;-64
2021/01/06 10:03:41;;;;;;;13.93;8.00;;;333.60;1510.40;;;;;;5101008;28;20020;-61
2021/01/06 10:06:36;;;;;;;66.15;31.30;;;333.50;1536.00;;;;;;5100155;28;20074;-62
2021/01/06 10:09:25;;;;;;;38.83;20.33;;;333.50;1536.00;;;;;;5099823;28;20028;-63
2021/01/06 10:12:00;;;;;;;23.80;15.75;;;333.60;1510.40;;;;;;5100028;28;20028;-61
2021/01/06 10:14:38;;;;;;;25.20;18.98;;;333.70;1510.40;;;;;;5099780;28;20032;-64
2021/01/06 10:17:35;;;;;;;9.83;6.47;;;358.40;1510.40;;;;;;5104059;28;20076;-62
2021/01/06 10:20:00;;;;;;;7.68;4.25;;;358.60;1510.40;;;;;;5068794;28;20081;-64
2021/01/06 10:22:42;;;;;;;6.00;3.42;;;358.60;1484.80;;;;;;5099789;28;20333;-62
2021/01/06 10:25:13;;;;;;;4.30;2.78;;;358.70;1484.80;;;;;;5119721;28;20655;-62
2021/01/06 10:27:54;;;;;;;6.55;2.58;;;358.50;1510.40;;;;;;5119969;28;20050;-64
2021/01/06 10:30:21;;;;;;;4.63;2.05;;;358.40;1510.40;;;;;;5120245;28;20027;-63
2021/01/06 10:33:04;;;;;;;6.22;2.72;;;333.60;1510.40;;;;;;5119525;28;20036;-62
2021/01/06 10:35:33;;;;;;;5.45;2.42;;;358.40;1510.40;;;;;;5120351;28;20028;-63
2021/01/06 10:38:23;;;;;;;5.22;2.00;;;358.40;1536.00;;;;;;5115222;28;20035;-62
2021/01/06 10:40:51;;;;;;;6.82;4.25;;;358.40;1536.00;;;;;;5100322;28;20440;-66
2021/01/06 10:43:38;;;;;;;3.83;2.23;;;358.50;1510.40;;;;;;5104951;28;20023;-63
2021/01/06 10:46:47;;;;;;;6.65;2.10;;;358.50;1510.40;;;;;;5107101;28;20094;-64
2021/01/06 10:49:19;;;;;;;2.80;1.70;;;358.50;1510.40;;;;;;5099287;28;20119;-63
2021/01/06 10:52:01;;;;;;;5.25;2.75;;;358.50;1510.40;;;;;;5115455;28;20039;-63
2021/01/06 10:54:36;;;;;;;5.07;2.00;;;358.70;1510.40;;;;;;5119569;28;20031;-64
2021/01/06 10:57:15;;;;;;;3.67;1.70;;;358.80;1484.80;;;;;;5120039;28;20103;-64
2021/01/06 10:59:59;;;;;;;7.70;2.33;;;358.90;1459.20;;;;;;5119112;28;20114;-62
2021/01/06 11:02:37;;;;;;;19.92;4.18;;;358.90;1484.80;;;;;;5119085;28;20326;-64
2021/01/06 11:05:36;;;;;;;5.45;2.70;;;359.20;1433.60;;;;;;5119751;28;20019;-64
2021/01/06 11:08:20;;;;;;;9.82;5.72;;;384.10;1433.60;;;;;;5112314;28;20035;-62
2021/01/06 11:11:37;;;;;;;8.88;3.00;;;384.40;1408.00;;;;;;5117571;28;20036;-62
2021/01/06 11:14:21;;;;;;;8.45;4.25;;;384.60;1408.00;;;;;;5102145;27;20035;-64
2021/01/06 11:16:52;;;;;;;4.45;2.05;;;384.70;1356.80;;;;;;5119724;28;20020;-64
2021/01/06 11:19:40;;;;;;;6.30;2.75;;;384.70;1356.80;;;;;;5119700;28;20024;-64
2021/01/06 11:22:35;;;;;;;4.85;2.15;;;409.60;1356.80;;;;;;5119593;27;20031;-62
2021/01/06 11:25:22;;;;;;;5.38;2.20;;;409.80;1356.80;;;;;;5119376;28;20024;-64
2021/01/06 11:28:25;;;;;;;9.80;2.80;;;409.90;1305.60;;;;;;5119666;28;20020;-64
2021/01/06 11:31:14;;;;;;;6.65;2.10;;;410.10;1305.60;;;;;;5119503;28;20057;-63
2021/01/06 11:33:40;;;;;;;6.05;2.08;;;410.10;1331.20;;;;;;5118753;28;20034;-65
2021/01/06 11:36:06;;;;;;;5.07;1.95;;;384.90;1305.60;;;;;;5119049;28;20023;-64
2021/01/06 11:38:37;;;;;;;9.27;3.50;;;409.70;1331.20;;;;;;5119193;28;20421;-63
2021/01/06 11:41:04;;;;;;;8.48;1.92;;;410.50;1305.60;;;;;;5119463;28;20047;-64
2021/01/06 11:43:53;;;;;;;14.23;3.17;;;410.30;1280.00;;;;;;5119422;28;20372;-62
2021/01/06 11:46:25;;;;;;;10.57;4.50;;;436.00;1228.80;;;;;;5118771;28;20047;-62
2021/01/06 11:49:07;;;;;;;7.97;4.18;;;435.70;1254.40;;;;;;5117867;28;20108;-62
2021/01/06 11:51:33;;;;;;;13.18;4.60;;;435.60;1254.40;;;;;;5099023;28;20035;-65
2021/01/06 11:54:12;;;;;;;12.15;3.88;;;436.00;1228.80;;;;;;5098548;28;20028;-64
2021/01/06 11:56:48;;;;;;;6.43;2.60;;;460.90;1228.80;;;;;;5098667;28;20024;-63
2021/01/06 11:59:43;;;;;;;8.23;2.63;;;486.50;1177.60;;;;;;5097821;28;20027;-63
2021/01/06 12:02:26;;;;;;;5.13;2.45;;;461.70;1126.40;;;;;;5097983;28;20035;-63
2021/01/06 12:04:55;;;;;;;5.90;2.28;;;461.50;1152.00;;;;;;5097707;28;20031;-62
2021/01/06 12:07:41;;;;;;;6.88;2.67;;;486.70;1126.40;;;;;;5098294;28;20024;-63
2021/01/06 12:10:28;;;;;;;7.50;2.25;;;486.70;1126.40;;;;;;5097668;28;20035;-65
2021/01/06 12:13:12;;;;;;;5.80;2.50;;;487.10;1100.80;;;;;;5097147;28;20085;-65
2021/01/06 12:15:47;;;;;;;11.57;2.60;;;486.90;1100.80;;;;;;5097521;28;20035;-62
2021/01/06 12:18:25;;;;;;;8.60;2.60;;;487.00;1100.80;;;;;;5098101;28;20027;-63
2021/01/06 12:20:52;;;;;;;7.57;2.92;;;512.00;1075.20;;;;;;5097163;28;20024;-63
2021/01/06 12:23:25;;;;;;;6.90;2.42;;;512.30;1075.20;;;;;;5098207;28;20035;-64
2021/01/06 12:25:57;;;;;;;9.13;2.83;;;512.80;1049.60;;;;;;5097485;28;20024;-64
2021/01/06 12:28:54;;;;;;;9.05;2.80;;;512.80;1024.00;;;;;;5096960;28;20362;-65
2021/01/06 12:32:01;;;;;;;9.77;2.83;;;538.10;1049.60;;;;;;5097437;28;20111;-63
2021/01/06 12:34:37;;;;;;;9.55;3.90;;;538.50;998.40;;;;;;5097578;28;20031;-64
2021/01/06 12:37:12;;;;;;;10.85;2.97;;;563.60;1024.00;;;;;;5102212;28;20051;-62
2021/01/06 12:39:58;;;;;;;6.57;2.45;;;563.70;1024.00;;;;;;5118334;28;20027;-65
2021/01/06 12:42:31;;;;;;;8.05;2.50;;;564.00;998.40;;;;;;5097234;28;20024;-63
2021/01/06 12:45:12;;;;;;;5.90;2.25;;;563.60;998.40;;;;;;5097803;28;20019;-64
2021/01/06 12:48:21;;;;;;;7.60;2.30;;;563.80;998.40;;;;;;5097236;28;20056;-65
2021/01/06 12:50:55;;;;;;;19.90;10.60;;;563.40;1024.00;;;;;;5028180;28;20037;-66
2021/01/06 12:53:36;;;;;;;12.38;3.20;;;538.00;1024.00;;;;;;5054791;28;20032;-63
2021/01/06 12:56:04;;;;;;;7.47;3.10;;;512.60;1024.00;;;;;;5053226;28;20041;-65
2021/01/06 12:58:36;;;;;;;8.77;3.10;;;512.40;1075.20;;;;;;5034245;28;20045;-63
2021/01/06 13:01:25;;;;;;;6.57;3.50;;;512.50;1075.20;;;;;;5033949;28;20079;-64